Time;durP1;ratioP1;P1;durP2;ratioP2;P2;SDS_P1;SDS_P2;PMS_P1;PMS_P2;Temp;Humidity;BMP_temperature;BMP_pressure;BME280_temperature;BME280_humidity;BME280_pressure;Samples;Min_cycle;Max_cycle;Signal;HPM_P1;HPM_P2
2021/05/09 00:02:02;;;;;;;3.95;3.50;;;;;;;;;;6284569;28;20035;-86
2021/05/09 00:05:03;;;;;;;3.20;2.90;;;11.60;95.00;;;;;;6301249;28;20097;-86
2021/05/09 00:08:04;;;;;;;2.85;2.63;;;11.90;99.90;;;;;;6284739;28;20040;-86
2021/05/09 00:11:04;;;;;;;4.68;3.08;;;12.00;95.50;;;;;;6284739;28;20051;-87
2021/05/09 00:14:05;;;;;;;4.25;3.38;;;12.30;95.20;;;;;;6284112;28;20032;-86
2021/05/09 00:17:06;;;;;;;4.80;3.13;;;12.40;95.40;;;;;;6284241;28;20032;-87
2021/05/09 00:20:07;;;;;;;4.80;2.95;;;12.20;95.40;;;;;;6284712;28;20031;-87
2021/05/09 00:23:08;;;;;;;4.70;3.27;;;;;;;;;;6284212;28;20020;-87
2021/05/09 00:26:09;;;;;;;4.50;3.40;;;12.10;94.10;;;;;;6298125;28;20028;-87
2021/05/09 00:29:09;;;;;;;5.97;3.40;;;12.20;95.50;;;;;;6284043;28;20060;-87
2021/05/09 00:32:10;;;;;;;5.32;3.10;;;12.50;95.90;;;;;;6284171;28;20024;-86
2021/05/09 00:35:11;;;;;;;4.25;3.25;;;11.90;96.20;;;;;;6283862;28;20035;-87
2021/05/09 00:38:13;;;;;;;4.63;3.42;;;11.80;96.30;;;;;;6284160;28;20039;-86
2021/05/09 00:41:14;;;;;;;5.80;3.42;;;;;;;;;;6284232;28;20111;-85
2021/05/09 00:44:14;;;;;;;6.20;3.20;;;11.70;95.30;;;;;;6297347;28;20035;-87
2021/05/09 00:47:15;;;;;;;5.32;4.00;;;11.90;97.00;;;;;;6283926;28;20394;-87
2021/05/09 00:50:16;;;;;;;4.93;3.58;;;11.80;96.60;;;;;;6283205;28;20040;-87
2021/05/09 00:53:18;;;;;;;5.10;3.25;;;12.00;97.00;;;;;;6283797;28;20035;-87
2021/05/09 00:56:19;;;;;;;5.25;3.65;;;12.00;96.50;;;;;;6283770;28;20028;-87
2021/05/09 00:59:19;;;;;;;3.58;3.15;;;12.00;96.20;;;;;;6283583;28;20381;-86
2021/05/09 01:02:20;;;;;;;5.63;2.95;;;11.90;99.90;;;;;;6283437;28;20020;-86
2021/05/09 01:05:21;;;;;;;4.25;3.53;;;12.30;96.40;;;;;;6283491;28;20428;-89
2021/05/09 01:08:22;;;;;;;5.50;3.40;;;13.30;99.90;;;;;;6283374;28;20028;-88
2021/05/09 01:11:22;;;;;;;3.70;3.28;;;11.90;97.00;;;;;;6283168;28;20135;-88
2021/05/09 01:14:24;;;;;;;4.10;3.20;;;12.00;99.90;;;;;;6283392;28;20032;-88
2021/05/09 01:17:24;;;;;;;3.72;3.28;;;12.40;99.90;;;;;;6283361;28;20101;-88
2021/05/09 01:20:35;;;;;;;3.78;3.25;;;12.30;99.90;;;;;;6283539;28;20543;-88
2021/05/09 01:23:36;;;;;;;4.35;3.00;;;12.20;99.90;;;;;;6283336;28;20032;-88
2021/05/09 01:26:37;;;;;;;3.53;3.20;;;11.80;99.90;;;;;;6300309;28;20085;-87
2021/05/09 01:29:38;;;;;;;3.80;3.10;;;;;;;;;;6282891;28;20056;-87
2021/05/09 01:32:39;;;;;;;4.30;3.03;;;;;;;;;;6300299;28;20031;-87
2021/05/09 01:35:39;;;;;;;6.50;3.33;;;11.90;99.90;;;;;;6290932;28;20165;-88
2021/05/09 01:38:40;;;;;;;5.68;3.60;;;12.00;99.90;;;;;;6283267;28;20028;-87
2021/05/09 01:41:40;;;;;;;3.80;3.30;;;11.70;99.90;;;;;;6283626;28;20028;-87
2021/05/09 01:44:54;;;;;;;4.55;3.30;;;11.80;99.90;;;;;;6282968;28;20458;-87
2021/05/09 01:47:54;;;;;;;6.57;3.42;;;12.00;99.90;;;;;;6283858;28;20032;-87
2021/05/09 01:50:55;;;;;;;3.40;3.10;;;;;;;;;;6285912;28;20060;-87
2021/05/09 01:53:56;;;;;;;5.47;3.50;;;;;;;;;;6304728;28;20030;-87
2021/05/09 01:56:57;;;;;;;6.63;3.30;;;;;;;;;;6321054;28;20028;-87
2021/05/09 01:59:58;;;;;;;5.78;3.40;;;;;;;;;;6321145;28;20378;-86
2021/05/09 02:02:59;;;;;;;3.60;3.30;;;12.40;99.90;;;;;;6297002;28;20024;-89
2021/05/09 02:06:00;;;;;;;6.72;3.40;;;;;;;;;;6288199;28;20055;-89
2021/05/09 02:09:01;;;;;;;5.78;3.30;;;12.60;99.90;;;;;;6304313;28;20055;-88
2021/05/09 02:12:02;;;;;;;4.03;3.25;;;12.50;99.90;;;;;;6287991;28;20028;-88
2021/05/09 02:15:04;;;;;;;3.50;3.20;;;12.50;95.70;;;;;;6287667;28;20488;-88
2021/05/09 02:18:05;;;;;;;3.92;3.10;;;;;;;;;;6287730;28;20028;-88
2021/05/09 02:21:05;;;;;;;3.55;3.08;;;12.50;94.80;;;;;;6293356;28;20482;-88
2021/05/09 02:24:06;;;;;;;3.75;3.33;;;12.20;96.50;;;;;;6303970;28;20028;-88
2021/05/09 02:27:07;;;;;;;4.80;3.25;;;12.30;99.90;;;;;;6287443;28;20032;-88
2021/05/09 02:30:08;;;;;;;4.05;3.60;;;12.20;96.50;;;;;;6253820;28;20037;-87
2021/05/09 02:33:12;;;;;;;3.40;3.10;;;12.20;96.30;;;;;;6236556;28;20025;-88
2021/05/09 02:36:13;;;;;;;4.70;3.38;;;12.30;96.60;;;;;;6244642;28;20408;-87
2021/05/09 02:39:13;;;;;;;4.75;3.10;;;14.70;96.70;;;;;;6245530;28;20107;-88
2021/05/09 02:42:15;;;;;;;3.15;2.85;;;;;;;;;;6270433;28;20090;-88
2021/05/09 02:45:15;;;;;;;3.28;2.97;;;12.20;95.10;;;;;;6256854;28;20456;-88
2021/05/09 02:48:16;;;;;;;4.50;3.45;;;;;;;;;;6253694;28;20033;-88
2021/05/09 02:51:18;;;;;;;4.07;3.55;;;11.80;99.90;;;;;;6262083;28;20033;-87
2021/05/09 02:54:19;;;;;;;5.28;3.85;;;12.30;97.30;;;;;;6235075;28;20123;-86
2021/05/09 02:57:21;;;;;;;5.07;3.80;;;12.00;97.50;;;;;;6253042;28;20543;-88
2021/05/09 03:00:21;;;;;;;3.67;3.07;;;11.90;97.40;;;;;;6236588;28;20426;-88
2021/05/09 03:03:22;;;;;;;4.10;3.63;;;12.00;99.90;;;;;;6236814;28;20108;-88
2021/05/09 03:06:23;;;;;;;3.63;3.03;;;;;;;;;;6237311;28;20037;-88
2021/05/09 03:09:23;;;;;;;6.50;3.65;;;12.10;95.30;;;;;;6244153;28;20067;-87
2021/05/09 03:12:24;;;;;;;3.72;3.40;;;;;;;;;;6236860;28;20383;-88
2021/05/09 03:15:25;;;;;;;3.50;3.17;;;12.60;94.70;;;;;;6252712;28;20025;-86
2021/05/09 03:18:29;;;;;;;4.32;3.35;;;12.50;95.80;;;;;;6236443;28;20486;-86
2021/05/09 03:21:29;;;;;;;4.72;3.03;;;12.50;95.90;;;;;;6236720;28;20535;-86
2021/05/09 03:24:30;;;;;;;4.25;3.33;;;12.60;95.50;;;;;;6252263;28;20032;-86
2021/05/09 03:27:31;;;;;;;3.63;2.88;;;12.80;95.70;;;;;;6258664;28;20126;-87
2021/05/09 03:30:31;;;;;;;3.95;3.30;;;13.20;94.60;;;;;;6285672;28;20040;-88
2021/05/09 03:33:32;;;;;;;5.75;3.85;;;12.80;99.90;;;;;;6285517;28;20020;-87
2021/05/09 03:36:32;;;;;;;5.85;3.30;;;12.90;94.70;;;;;;6285728;28;20051;-87
2021/05/09 03:39:33;;;;;;;4.88;3.20;;;12.70;95.10;;;;;;6302301;28;20035;-87
2021/05/09 03:42:34;;;;;;;3.30;2.90;;;12.80;95.20;;;;;;6285676;28;20587;-85
2021/05/09 03:45:34;;;;;;;3.90;3.03;;;12.50;95.50;;;;;;6285163;28;20028;-85
2021/05/09 03:48:35;;;;;;;3.35;3.03;;;12.90;94.90;;;;;;6285242;28;20066;-88
2021/05/09 03:51:37;;;;;;;4.38;3.40;;;12.60;94.90;;;;;;6285176;28;20538;-87
2021/05/09 03:54:38;;;;;;;4.82;3.25;;;12.70;95.10;;;;;;6302114;28;20484;-87
2021/05/09 03:57:38;;;;;;;4.07;3.22;;;12.50;99.90;;;;;;6285097;28;20028;-87
2021/05/09 04:00:39;;;;;;;4.57;3.30;;;12.50;99.90;;;;;;6285578;28;20067;-87
2021/05/09 04:03:40;;;;;;;3.90;3.50;;;12.50;95.80;;;;;;6284994;28;20035;-87
2021/05/09 04:06:40;;;;;;;3.40;3.10;;;12.70;99.90;;;;;;6302156;28;20051;-88
2021/05/09 04:09:41;;;;;;;6.90;3.67;;;12.50;95.50;;;;;;6301563;28;20040;-86
2021/05/09 04:12:41;;;;;;;4.35;3.30;;;12.50;95.40;;;;;;6283748;28;20028;-87
2021/05/09 04:15:42;;;;;;;9.07;3.65;;;12.60;95.40;;;;;;6284887;28;20052;-86
2021/05/09 04:18:43;;;;;;;4.40;3.45;;;12.80;95.60;;;;;;6284366;28;20065;-87
2021/05/09 04:21:43;;;;;;;4.70;3.10;;;12.60;95.40;;;;;;6284256;28;20078;-87
2021/05/09 04:24:44;;;;;;;4.75;3.33;;;12.10;95.30;;;;;;6284385;28;20032;-87
2021/05/09 04:27:45;;;;;;;6.03;3.50;;;12.80;95.40;;;;;;6284161;28;20401;-87
2021/05/09 04:30:45;;;;;;;5.05;3.72;;;13.40;95.00;;;;;;6284438;28;20097;-87
2021/05/09 04:33:46;;;;;;;3.67;3.20;;;;;;;;;;6284241;28;20078;-88
2021/05/09 04:36:47;;;;;;;3.67;3.38;;;13.80;92.00;;;;;;6291741;28;20020;-85
2021/05/09 04:39:48;;;;;;;3.40;3.03;;;13.90;92.70;;;;;;6301052;28;20454;-86
2021/05/09 04:42:49;;;;;;;6.38;3.13;;;14.00;92.80;;;;;;6273990;28;20032;-85
2021/05/09 04:45:56;;;;;;;4.28;3.60;;;14.10;92.50;;;;;;6300341;28;20051;-85
2021/05/09 04:48:56;;;;;;;3.35;3.05;;;14.00;92.40;;;;;;6300632;28;20119;-85
2021/05/09 04:51:57;;;;;;;6.63;3.30;;;14.20;92.40;;;;;;6284014;28;20031;-85
2021/05/09 04:54:58;;;;;;;4.78;3.80;;;;;;;;;;6284230;28;20485;-86
2021/05/09 04:58:00;;;;;;;5.65;3.13;;;14.50;90.70;;;;;;6300592;28;20032;-85
2021/05/09 05:01:01;;;;;;;3.97;3.03;;;14.60;91.40;;;;;;6284474;28;20094;-86
2021/05/09 05:04:02;;;;;;;6.38;3.00;;;14.90;90.40;;;;;;6283648;28;20032;-86
2021/05/09 05:07:02;;;;;;;4.88;3.05;;;15.60;89.90;;;;;;6300884;28;20047;-86
2021/05/09 05:10:04;;;;;;;3.63;3.05;;;15.40;88.80;;;;;;6299986;28;20043;-85
2021/05/09 05:13:22;;;;;;;4.68;3.00;;;15.80;86.60;;;;;;6283867;28;20078;-86
2021/05/09 05:16:22;;;;;;;4.80;3.25;;;16.10;84.20;;;;;;6284553;28;20032;-86
2021/05/09 05:19:23;;;;;;;3.97;3.20;;;16.30;85.80;;;;;;6283736;28;20123;-86
2021/05/09 05:22:29;;;;;;;3.97;3.17;;;16.50;85.20;;;;;;6300460;28;20028;-85
2021/05/09 05:25:29;;;;;;;3.80;3.00;;;16.60;85.30;;;;;;6300409;28;20088;-85
2021/05/09 05:28:30;;;;;;;4.43;3.15;;;16.70;83.20;;;;;;6282809;28;20056;-85
2021/05/09 05:31:30;;;;;;;4.15;3.35;;;16.80;83.50;;;;;;6299616;28;20132;-85
2021/05/09 05:34:31;;;;;;;4.68;3.10;;;16.90;83.30;;;;;;6299514;28;20466;-86
2021/05/09 05:37:32;;;;;;;4.82;3.78;;;17.20;81.60;;;;;;6282962;28;20028;-87
2021/05/09 05:40:33;;;;;;;3.30;3.00;;;17.80;82.20;;;;;;6282891;28;20032;-86
2021/05/09 05:43:34;;;;;;;4.78;3.60;;;17.30;81.80;;;;;;6282944;28;20032;-87
2021/05/09 05:46:44;;;;;;;4.47;3.40;;;17.80;81.20;;;;;;6283093;28;20032;-86
2021/05/09 05:49:45;;;;;;;4.38;2.80;;;18.10;79.20;;;;;;6306096;28;20117;-87
2021/05/09 05:52:45;;;;;;;4.32;3.13;;;;;;;;;;6282966;28;20457;-86
2021/05/09 05:55:46;;;;;;;6.20;3.20;;;18.80;90.10;;;;;;6287627;28;20035;-87
2021/05/09 05:58:53;;;;;;;7.85;2.70;;;19.20;76.70;;;;;;6282598;28;20040;-86
2021/05/09 06:01:54;;;;;;;3.50;3.00;;;17.50;76.80;;;;;;6282633;28;20058;-87
2021/05/09 06:04:55;;;;;;;5.28;3.70;;;;;;;;;;6283129;28;20027;-87
2021/05/09 06:07:55;;;;;;;3.20;2.80;;;19.60;72.20;;;;;;6299075;28;20039;-87
2021/05/09 06:10:56;;;;;;;3.40;2.80;;;19.80;71.70;;;;;;6282746;28;20054;-87
2021/05/09 06:13:56;;;;;;;4.63;3.10;;;20.00;71.00;;;;;;6282578;28;20363;-87
2021/05/09 06:16:57;;;;;;;4.40;2.63;;;20.20;71.40;;;;;;6282387;28;20062;-86
2021/05/09 06:19:58;;;;;;;4.55;2.92;;;20.70;72.30;;;;;;6282795;28;20024;-87
2021/05/09 06:22:59;;;;;;;4.50;2.90;;;20.90;70.00;;;;;;6281977;28;20028;-86
2021/05/09 06:26:06;;;;;;;3.80;3.07;;;21.40;67.00;;;;;;6281892;28;20115;-86
2021/05/09 06:29:06;;;;;;;5.03;2.67;;;21.70;65.70;;;;;;6281254;28;20058;-82
2021/05/09 06:32:07;;;;;;;5.32;2.58;;;21.80;65.60;;;;;;6297360;28;20036;-84
2021/05/09 06:35:08;;;;;;;5.88;3.25;;;21.90;63.00;;;;;;6282376;28;20039;-82
2021/05/09 06:38:09;;;;;;;3.67;2.88;;;22.00;64.30;;;;;;6302746;28;20073;-82
2021/05/09 06:41:09;;;;;;;3.47;3.17;;;22.30;63.70;;;;;;6303398;28;20040;-82
2021/05/09 06:44:11;;;;;;;3.60;3.30;;;23.10;62.80;;;;;;6303432;28;20028;-82
2021/05/09 06:47:12;;;;;;;3.08;2.78;;;23.20;61.30;;;;;;6320306;28;20020;-80
2021/05/09 06:50:12;;;;;;;3.53;2.65;;;23.60;61.60;;;;;;6302369;28;20051;-82
2021/05/09 06:53:13;;;;;;;3.58;3.10;;;23.70;60.40;;;;;;6319782;28;20474;-81
2021/05/09 06:56:13;;;;;;;5.35;2.70;;;24.00;59.90;;;;;;6303043;28;20052;-79
2021/05/09 06:59:14;;;;;;;3.00;2.80;;;24.40;57.70;;;;;;6319534;28;20394;-81
2021/05/09 07:02:15;;;;;;;3.05;2.47;;;25.50;75.80;;;;;;6286423;28;20359;-81
2021/05/09 07:05:15;;;;;;;2.60;2.40;;;25.50;59.90;;;;;;6319675;28;20040;-84
2021/05/09 07:08:16;;;;;;;3.88;2.38;;;26.30;61.40;;;;;;6302184;28;20039;-82
2021/05/09 07:11:16;;;;;;;10.20;3.30;;;26.70;58.10;;;;;;6302395;28;20024;-82
2021/05/09 07:14:17;;;;;;;5.03;2.73;;;27.30;58.80;;;;;;6320769;28;20036;-77
2021/05/09 07:17:18;;;;;;;2.60;2.10;;;27.50;56.30;;;;;;6319204;28;20028;-80
2021/05/09 07:20:19;;;;;;;3.43;2.50;;;28.00;54.70;;;;;;6319740;28;20134;-81
2021/05/09 07:23:19;;;;;;;5.87;3.00;;;28.70;53.20;;;;;;6319570;28;20024;-80
2021/05/09 07:26:20;;;;;;;3.60;2.67;;;28.80;50.70;;;;;;6302484;28;20324;-80
2021/05/09 07:29:21;;;;;;;3.33;2.60;;;28.10;50.80;;;;;;6318790;28;20052;-81
2021/05/09 07:32:21;;;;;;;3.10;2.50;;;28.10;51.20;;;;;;6301395;28;20062;-82
2021/05/09 07:35:22;;;;;;;2.57;2.30;;;28.40;44.90;;;;;;6319215;28;20059;-81
2021/05/09 07:38:22;;;;;;;3.03;2.57;;;29.20;45.10;;;;;;6318944;28;20059;-81
2021/05/09 07:41:23;;;;;;;3.23;2.17;;;29.80;45.40;;;;;;6319891;28;20028;-81
2021/05/09 07:44:24;;;;;;;4.90;3.07;;;30.10;41.30;;;;;;6318177;28;20035;-80
2021/05/09 07:47:25;;;;;;;3.93;3.07;;;30.00;41.20;;;;;;6301866;28;20432;-80
2021/05/09 07:50:26;;;;;;;3.08;2.60;;;30.20;45.10;;;;;;6318775;28;20306;-81
2021/05/09 07:53:27;;;;;;;3.33;2.47;;;31.00;44.90;;;;;;6317738;28;20032;-81
2021/05/09 07:56:28;;;;;;;4.17;2.40;;;31.20;41.40;;;;;;6284778;28;20470;-82
2021/05/09 07:59:31;;;;;;;2.33;2.13;;;32.00;41.10;;;;;;6283968;28;20032;-83
2021/05/09 08:02:32;;;;;;;2.45;2.25;;;32.30;38.50;;;;;;6285538;28;20374;-84
2021/05/09 08:05:33;;;;;;;3.27;2.50;;;;;;;;;;6284080;28;20455;-82
2021/05/09 08:08:34;;;;;;;2.47;2.28;;;32.00;68.00;;;;;;6299327;28;20032;-83
2021/05/09 08:11:34;;;;;;;2.50;1.90;;;32.00;48.50;;;;;;6289327;28;20040;-84
2021/05/09 08:14:35;;;;;;;4.07;2.20;;;32.00;40.50;;;;;;6282243;28;20051;-81
2021/05/09 08:17:35;;;;;;;3.67;2.17;;;32.20;40.70;;;;;;6300203;28;20031;-84
2021/05/09 08:20:37;;;;;;;2.80;1.90;;;32.30;41.70;;;;;;6283755;28;20831;-85
2021/05/09 08:23:39;;;;;;;2.40;2.20;;;32.00;42.50;;;;;;6300614;28;20266;-84
2021/05/09 08:26:40;;;;;;;2.47;2.15;;;31.80;42.00;;;;;;6283953;28;20042;-83
2021/05/09 08:29:41;;;;;;;2.10;1.90;;;31.50;43.70;;;;;;6283442;28;20059;-84
2021/05/09 08:32:41;;;;;;;1.88;1.77;;;31.20;43.00;;;;;;6283069;28;20039;-87
2021/05/09 08:35:42;;;;;;;2.90;2.13;;;31.50;43.60;;;;;;6283959;28;20454;-87
2021/05/09 08:38:42;;;;;;;2.30;2.10;;;30.90;41.70;;;;;;6283188;28;20043;-86
2021/05/09 08:41:43;;;;;;;2.33;1.93;;;30.90;38.30;;;;;;6282236;28;20455;-86
2021/05/09 08:44:47;;;;;;;2.55;1.88;;;31.20;39.90;;;;;;6282758;28;20141;-85
2021/05/09 08:47:50;;;;;;;2.05;1.85;;;31.80;39.20;;;;;;6283774;28;20067;-86
2021/05/09 08:50:50;;;;;;;3.13;2.05;;;32.20;35.50;;;;;;6300539;28;20031;-85
2021/05/09 08:53:54;;;;;;;2.67;2.13;;;31.90;35.80;;;;;;6283138;28;20039;-86
2021/05/09 08:56:55;;;;;;;2.15;2.00;;;31.20;35.90;;;;;;6282779;28;20024;-88
2021/05/09 08:59:55;;;;;;;2.13;1.93;;;31.00;40.60;;;;;;6282181;28;20073;-85
2021/05/09 09:02:57;;;;;;;3.10;1.87;;;31.40;40.20;;;;;;6283037;28;20378;-85
2021/05/09 09:05:57;;;;;;;2.80;2.05;;;31.90;37.50;;;;;;6296951;28;20626;-87
2021/05/09 09:08:58;;;;;;;3.53;2.47;;;32.00;36.00;;;;;;6281097;28;20028;-86
2021/05/09 09:12:01;;;;;;;2.97;2.10;;;31.60;36.50;;;;;;6281566;28;20023;-86
2021/05/09 09:15:02;;;;;;;2.30;2.05;;;31.70;33.90;;;;;;6283355;28;20035;-85
2021/05/09 09:18:30;;;;;;;3.27;2.27;;;31.20;39.60;;;;;;6279840;28;20089;-86
2021/05/09 09:21:31;;;;;;;2.60;2.25;;;31.40;36.30;;;;;;6299127;28;20686;-83
2021/05/09 09:24:32;;;;;;;3.40;2.00;;;31.60;36.30;;;;;;6281958;28;20101;-86
2021/05/09 09:27:32;;;;;;;2.20;2.00;;;32.20;34.40;;;;;;6281057;28;20063;-85
2021/05/09 09:30:46;;;;;;;2.57;2.37;;;33.60;34.70;;;;;;6299105;28;20258;-85
2021/05/09 09:33:50;;;;;;;3.58;2.03;;;33.40;35.10;;;;;;6284845;28;20139;-87
2021/05/09 09:37:01;;;;;;;5.00;2.40;;;32.60;33.60;;;;;;6282409;28;20028;-86
2021/05/09 09:40:02;;;;;;;2.67;2.30;;;32.20;34.40;;;;;;6299229;28;20478;-86
2021/05/09 09:43:03;;;;;;;;;;;31.70;36.30;;;;;;6282021;28;20431;-87
2021/05/09 09:46:23;;;;;;;2.30;1.93;;;31.40;35.70;;;;;;6299770;28;19969;-87
2021/05/09 09:49:26;;;;;;;2.33;2.10;;;30.80;38.40;;;;;;6285578;28;20424;-87
2021/05/09 09:52:29;;;;;;;2.20;2.00;;;30.40;38.20;;;;;;6282566;28;20039;-80
2021/05/09 09:55:29;;;;;;;3.17;2.05;;;30.40;38.70;;;;;;6315299;28;20036;-87
2021/05/09 09:58:58;;;;;;;2.90;2.10;;;29.90;39.80;;;;;;6281896;28;20032;-86
2021/05/09 10:01:58;;;;;;;1.95;1.85;;;30.40;39.60;;;;;;6295788;28;20211;-86
2021/05/09 10:05:00;;;;;;;3.00;2.00;;;30.80;37.80;;;;;;6282217;28;20374;-87
2021/05/09 10:08:00;;;;;;;;;;;30.70;38.20;;;;;;6283422;28;20114;-87
2021/05/09 10:11:02;;;;;;;3.67;2.00;;;30.40;39.80;;;;;;6300788;28;19914;-87
2021/05/09 10:14:03;;;;;;;3.83;2.40;;;30.50;39.00;;;;;;6303879;28;20039;-87
2021/05/09 10:17:03;;;;;;;4.45;2.70;;;30.90;37.60;;;;;;6287367;28;20032;-87
2021/05/09 10:20:05;;;;;;;3.27;2.37;;;30.90;37.20;;;;;;6287604;28;20146;-87
2021/05/09 10:23:06;;;;;;;5.45;2.17;;;31.10;38.00;;;;;;6304043;28;20032;-85
2021/05/09 10:26:06;;;;;;;2.42;2.05;;;32.40;36.20;;;;;;6287844;28;20032;-87
2021/05/09 10:29:07;;;;;;;2.38;2.08;;;31.80;36.50;;;;;;6303791;28;20048;-86
2021/05/09 10:32:20;;;;;;;2.50;1.90;;;30.90;46.80;;;;;;6303395;28;20154;-86
2021/05/09 10:35:33;;;;;;;2.53;2.33;;;30.90;47.40;;;;;;6321703;28;20020;-86
2021/05/09 10:39:11;;;;;;;3.92;1.98;;;30.50;47.10;;;;;;6287242;28;20359;-87
2021/05/09 10:42:12;;;;;;;3.83;2.20;;;30.40;44.80;;;;;;6319593;28;20055;-81
2021/05/09 10:45:27;;;;;;;2.23;2.03;;;30.00;46.90;;;;;;6321093;28;20026;-85
2021/05/09 10:51:29;;;;;;;3.37;2.37;;;30.00;47.70;;;;;;6320289;28;20081;-86
2021/05/09 10:54:29;;;;;;;7.68;1.95;;;30.40;47.10;;;;;;6302589;28;20032;-86
2021/05/09 10:57:44;;;;;;;2.40;1.70;;;30.90;47.50;;;;;;6286105;28;20039;-90
2021/05/09 11:00:59;;;;;;;2.20;2.00;;;29.70;64.40;;;;;;6302422;28;20054;-86
2021/05/09 11:04:12;;;;;;;2.45;2.08;;;29.70;38.50;;;;;;6321050;28;20028;-85
2021/05/09 11:07:42;;;;;;;2.28;2.00;;;29.50;34.00;;;;;;6284192;28;20528;-84
2021/05/09 11:10:43;;;;;;;3.42;2.30;;;29.30;33.50;;;;;;6315283;28;20127;-84
2021/05/09 11:14:02;;;;;;;2.60;2.00;;;29.10;36.40;;;;;;6301675;28;20028;-86
2021/05/09 11:17:06;;;;;;;2.30;2.10;;;29.20;34.20;;;;;;6317270;28;20262;-86
2021/05/09 11:20:08;;;;;;;2.00;1.85;;;29.30;36.70;;;;;;6300896;28;20096;-89
2021/05/09 11:23:09;;;;;;;2.53;1.90;;;29.60;47.90;;;;;;6293055;28;20032;-87
2021/05/09 11:26:25;;;;;;;3.93;2.00;;;29.80;47.00;;;;;;6302546;28;20032;-88
2021/05/09 11:29:27;;;;;;;2.30;2.10;;;29.90;34.60;;;;;;6301522;28;20059;-89
2021/05/09 11:32:27;;;;;;;;;;;29.90;47.50;;;;;;6303542;28;20028;-89
2021/05/09 11:35:39;;;;;;;4.45;2.20;;;29.20;61.50;;;;;;6319712;28;19919;-89
2021/05/09 11:38:39;;;;;;;3.47;2.10;;;29.10;35.90;;;;;;6302189;28;20032;-82
2021/05/09 11:42:01;;;;;;;2.97;2.00;;;29.30;48.90;;;;;;6285571;28;20735;-88
2021/05/09 11:45:02;;;;;;;2.42;2.00;;;29.60;34.10;;;;;;6318514;28;20032;-88
2021/05/09 11:48:03;;;;;;;2.08;1.70;;;29.20;37.30;;;;;;6284439;28;20031;-82
2021/05/09 11:51:05;;;;;;;2.20;1.98;;;30.00;48.30;;;;;;6282891;28;20036;-85
2021/05/09 11:54:08;;;;;;;;;;;30.00;49.40;;;;;;6283070;28;20035;-84
2021/05/09 11:57:09;;;;;;;5.22;2.25;;;30.20;45.30;;;;;;6300382;28;20519;-85
2021/05/09 12:00:18;;;;;;;2.30;1.80;;;30.50;45.70;;;;;;6300492;28;20077;-87
2021/05/09 12:03:31;;;;;;;3.00;2.13;;;30.00;42.60;;;;;;6300944;28;20382;-84
2021/05/09 12:06:32;;;;;;;2.55;2.05;;;29.80;36.40;;;;;;6280108;28;20035;-86
2021/05/09 12:09:32;;;;;;;2.10;1.90;;;29.40;36.50;;;;;;6281073;28;20440;-80
2021/05/09 12:12:35;;;;;;;2.83;1.83;;;29.30;35.80;;;;;;6283925;28;20032;-84
2021/05/09 12:15:37;;;;;;;2.05;1.92;;;29.60;36.60;;;;;;6299052;28;20032;-86
2021/05/09 12:18:38;;;;;;;2.13;1.90;;;29.60;47.20;;;;;;6287567;28;20043;-86
2021/05/09 12:21:39;;;;;;;3.58;2.10;;;29.90;48.10;;;;;;6282325;28;20119;-81
2021/05/09 12:24:56;;;;;;;3.72;2.45;;;29.50;46.00;;;;;;6301041;28;20032;-80
2021/05/09 12:28:07;;;;;;;2.22;2.05;;;29.60;51.20;;;;;;6299393;28;20063;-82
2021/05/09 12:31:09;;;;;;;2.03;1.85;;;29.20;47.50;;;;;;6317539;28;20497;-88
2021/05/09 12:34:13;;;;;;;1.58;1.48;;;29.40;46.90;;;;;;6282253;28;20054;-87
2021/05/09 12:37:13;;;;;;;3.25;2.58;;;29.40;46.60;;;;;;6301045;28;20774;-85
2021/05/09 12:40:28;;;;;;;2.30;1.90;;;29.60;50.90;;;;;;6283575;28;20044;-86
2021/05/09 12:43:48;;;;;;;2.20;2.00;;;29.60;44.20;;;;;;6319063;28;20078;-84
2021/05/09 12:46:48;;;;;;;1.75;1.65;;;29.20;31.80;;;;;;6284540;28;20027;-86
2021/05/09 12:49:59;;;;;;;3.13;2.17;;;29.00;48.80;;;;;;6283953;28;20027;-86
2021/05/09 12:52:59;;;;;;;2.20;2.00;;;29.30;35.30;;;;;;6283389;28;20032;-86
2021/05/09 12:56:25;;;;;;;2.10;1.90;;;29.40;46.50;;;;;;6317481;28;20027;-85
2021/05/09 12:59:26;;;;;;;2.22;2.00;;;29.30;31.30;;;;;;6318646;28;20036;-85
2021/05/09 13:02:29;;;;;;;2.10;1.90;;;29.30;46.90;;;;;;6283226;28;20074;-85
2021/05/09 13:05:30;;;;;;;2.10;1.90;;;29.20;32.60;;;;;;6284281;28;20065;-85
2021/05/09 13:08:30;;;;;;;2.10;1.97;;;29.70;40.20;;;;;;6283353;28;20040;-86
2021/05/09 13:11:31;;;;;;;1.77;1.67;;;29.90;38.60;;;;;;6316697;28;20059;-85
2021/05/09 13:14:41;;;;;;;2.33;2.00;;;30.30;39.50;;;;;;6283532;28;20032;-86
2021/05/09 13:17:42;;;;;;;3.25;2.00;;;30.70;39.70;;;;;;6300224;28;20024;-86
2021/05/09 13:20:43;;;;;;;2.00;1.80;;;30.90;36.10;;;;;;6300135;28;20068;-86
2021/05/09 13:23:43;;;;;;;2.13;1.70;;;31.20;32.00;;;;;;6283472;28;20478;-84
2021/05/09 13:26:44;;;;;;;2.13;1.90;;;31.90;36.00;;;;;;6299591;28;20024;-85
2021/05/09 13:29:44;;;;;;;2.97;1.70;;;31.40;37.00;;;;;;6283164;28;20048;-84
2021/05/09 13:32:45;;;;;;;1.77;1.67;;;31.40;33.80;;;;;;6283170;28;20462;-84
2021/05/09 13:35:46;;;;;;;2.37;2.00;;;31.40;31.90;;;;;;6282761;28;20655;-84
2021/05/09 13:38:46;;;;;;;2.13;1.90;;;30.90;31.70;;;;;;6283000;28;20397;-84
2021/05/09 13:41:47;;;;;;;5.50;2.07;;;30.80;35.40;;;;;;6299620;28;20032;-84
2021/05/09 13:44:47;;;;;;;1.60;1.50;;;30.70;33.30;;;;;;6284984;28;20058;-84
2021/05/09 13:47:51;;;;;;;6.97;2.13;;;30.40;32.00;;;;;;6288819;28;20059;-84
2021/05/09 13:50:52;;;;;;;2.22;2.03;;;29.90;35.00;;;;;;6304584;28;20598;-84
2021/05/09 13:53:52;;;;;;;1.80;1.70;;;30.30;33.60;;;;;;6288151;28;20435;-84
2021/05/09 13:56:53;;;;;;;2.10;1.90;;;30.10;35.00;;;;;;6304975;28;20676;-84
2021/05/09 13:59:54;;;;;;;1.93;1.83;;;29.50;33.00;;;;;;6304300;28;20047;-84
2021/05/09 14:02:54;;;;;;;1.73;1.63;;;30.20;31.40;;;;;;6287545;28;20031;-84
2021/05/09 14:05:55;;;;;;;1.87;1.63;;;29.70;32.80;;;;;;6287572;28;20031;-85
2021/05/09 14:08:55;;;;;;;1.60;1.50;;;29.90;33.60;;;;;;6304445;28;20488;-84
2021/05/09 14:12:04;;;;;;;2.30;2.10;;;30.20;35.80;;;;;;6287557;28;20044;-84
2021/05/09 14:15:05;;;;;;;2.35;1.92;;;30.20;29.90;;;;;;6305428;28;20035;-83
2021/05/09 14:18:06;;;;;;;2.80;1.88;;;30.00;33.10;;;;;;6304180;28;20374;-84
2021/05/09 14:21:06;;;;;;;3.78;2.25;;;29.70;33.30;;;;;;6304257;28;20032;-84
2021/05/09 14:24:07;;;;;;;3.30;1.90;;;29.60;35.40;;;;;;6304220;28;20043;-83
2021/05/09 14:27:09;;;;;;;1.95;1.80;;;29.50;33.70;;;;;;6286880;28;20032;-84
2021/05/09 14:30:10;;;;;;;4.55;2.05;;;29.50;34.70;;;;;;6287433;28;20036;-84
2021/05/09 14:33:11;;;;;;;2.75;1.95;;;29.40;35.30;;;;;;6287179;28;20390;-85
2021/05/09 14:36:12;;;;;;;2.97;2.10;;;29.20;35.80;;;;;;6320626;28;20032;-84
2021/05/09 14:39:13;;;;;;;;;;;29.30;36.30;;;;;;6287474;28;20046;-85
2021/05/09 14:42:13;;;;;;;2.35;2.15;;;29.50;34.30;;;;;;6303775;28;19908;-84
2021/05/09 14:45:14;;;;;;;3.07;2.00;;;29.40;35.40;;;;;;6286494;28;20076;-85
2021/05/09 14:48:15;;;;;;;2.50;2.20;;;29.40;36.20;;;;;;6284800;28;20063;-87
2021/05/09 14:51:15;;;;;;;2.20;1.90;;;29.10;35.40;;;;;;6286267;28;20028;-83
2021/05/09 14:54:16;;;;;;;3.07;2.30;;;29.10;35.70;;;;;;6286509;28;20367;-85
2021/05/09 14:57:16;;;;;;;4.00;2.40;;;29.30;35.80;;;;;;6285819;28;20406;-85
2021/05/09 15:00:17;;;;;;;3.57;1.90;;;29.20;33.60;;;;;;6302991;28;20042;-85
2021/05/09 15:03:18;;;;;;;2.78;2.10;;;29.40;35.40;;;;;;6320341;28;20088;-84
2021/05/09 15:06:19;;;;;;;3.83;1.90;;;29.40;34.00;;;;;;6302418;28;20027;-84
2021/05/09 15:09:19;;;;;;;3.00;1.97;;;29.60;34.90;;;;;;6302481;28;20099;-86
2021/05/09 15:12:20;;;;;;;3.03;1.92;;;29.40;35.00;;;;;;6319917;28;20060;-77
2021/05/09 15:15:21;;;;;;;1.80;1.70;;;29.40;35.00;;;;;;6320964;28;20106;-83
2021/05/09 15:18:21;;;;;;;2.10;1.90;;;29.40;34.30;;;;;;6302622;28;20077;-86
2021/05/09 15:21:22;;;;;;;3.30;1.80;;;29.90;35.20;;;;;;6285872;28;20038;-85
2021/05/09 15:24:22;;;;;;;1.80;1.70;;;29.40;34.10;;;;;;6284250;28;20050;-87
2021/05/09 15:27:23;;;;;;;2.07;1.80;;;29.30;33.40;;;;;;6301487;28;20032;-90
2021/05/09 15:30:24;;;;;;;3.07;2.00;;;29.40;33.00;;;;;;6286758;28;20508;-91
2021/05/09 15:33:37;;;;;;;3.05;2.20;;;29.40;33.20;;;;;;6286597;28;20497;-89
2021/05/09 15:36:42;;;;;;;3.10;2.03;;;29.40;35.80;;;;;;6286450;28;20119;-88
2021/05/09 15:39:45;;;;;;;2.15;1.95;;;29.40;33.40;;;;;;6289312;28;20944;-88
2021/05/09 15:42:48;;;;;;;2.30;2.00;;;29.40;36.10;;;;;;6303545;28;20412;-89
2021/05/09 15:45:49;;;;;;;4.07;2.20;;;29.40;33.40;;;;;;6285764;28;20477;-87
2021/05/09 15:48:49;;;;;;;1.97;1.83;;;29.00;37.20;;;;;;6284630;28;20052;-84
2021/05/09 15:51:53;;;;;;;1.77;1.67;;;28.90;34.80;;;;;;6302159;28;20024;-84
2021/05/09 15:54:53;;;;;;;2.10;1.95;;;28.90;35.00;;;;;;6301476;28;20077;-84
2021/05/09 15:57:55;;;;;;;1.87;1.77;;;28.90;35.50;;;;;;6301399;28;20462;-85
2021/05/09 16:00:56;;;;;;;2.10;1.90;;;28.80;35.50;;;;;;6300415;28;20032;-81
2021/05/09 16:03:57;;;;;;;4.27;3.20;;;28.80;35.90;;;;;;6301991;28;20202;-87